sensor_id;sensor_type;location;lat;lon;timestamp;pressure;altitude;pressure_sealevel;temperature;humidity
73941;BME280;62294;48.554;10.202;2022-08-25T00:01:16;96308.63;;;14.10;85.13
73941;BME280;62294;48.554;10.202;2022-08-25T00:03:43;96306.09;;;14.15;85.14
73941;BME280;62294;48.554;10.202;2022-08-25T00:06:11;96303.53;;;14.20;85.11
73941;BME280;62294;48.554;10.202;2022-08-25T00:08:38;96300.03;;;14.20;84.68
73941;BME280;62294;48.554;10.202;2022-08-25T00:11:09;96296.78;;;14.18;84.53
73941;BME280;62294;48.554;10.202;2022-08-25T00:13:40;96306.47;;;14.07;85.10
73941;BME280;62294;48.554;10.202;2022-08-25T00:16:10;96303.78;;;14.07;85.22
73941;BME280;62294;48.554;10.202;2022-08-25T00:18:39;96299.47;;;14.06;84.89
73941;BME280;62294;48.554;10.202;2022-08-25T00:21:07;96297.25;;;13.92;85.45
73941;BME280;62294;48.554;10.202;2022-08-25T00:23:34;96297.16;;;13.98;85.22
73941;BME280;62294;48.554;10.202;2022-08-25T00:26:01;96293.31;;;13.94;85.23
73941;BME280;62294;48.554;10.202;2022-08-25T00:28:27;96295.09;;;13.89;85.07
73941;BME280;62294;48.554;10.202;2022-08-25T00:30:56;96306.00;;;13.76;85.49
73941;BME280;62294;48.554;10.202;2022-08-25T00:33:24;96300.75;;;13.69;85.76
73941;BME280;62294;48.554;10.202;2022-08-25T00:35:51;96310.06;;;13.78;85.18
73941;BME280;62294;48.554;10.202;2022-08-25T00:38:19;96307.75;;;13.70;85.55
73941;BME280;62294;48.554;10.202;2022-08-25T00:40:46;96317.16;;;13.84;85.41
73941;BME280;62294;48.554;10.202;2022-08-25T00:46:11;96306.09;;;13.92;84.90
73941;BME280;62294;48.554;10.202;2022-08-25T00:48:40;96299.72;;;13.93;84.68
73941;BME280;62294;48.554;10.202;2022-08-25T00:51:09;96294.25;;;13.88;84.80
73941;BME280;62294;48.554;10.202;2022-08-25T00:53:37;96288.69;;;13.90;84.60
73941;BME280;62294;48.554;10.202;2022-08-25T00:56:05;96292.16;;;13.90;84.66
73941;BME280;62294;48.554;10.202;2022-08-25T00:58:33;96291.59;;;13.88;84.74
73941;BME280;62294;48.554;10.202;2022-08-25T01:01:00;96284.41;;;13.89;84.30
73941;BME280;62294;48.554;10.202;2022-08-25T01:03:28;96296.25;;;13.81;84.81
73941;BME280;62294;48.554;10.202;2022-08-25T01:06:02;96283.34;;;13.78;84.44
73941;BME280;62294;48.554;10.202;2022-08-25T01:08:31;96280.56;;;13.73;84.63
73941;BME280;62294;48.554;10.202;2022-08-25T01:11:02;96282.06;;;13.69;84.59
73941;BME280;62294;48.554;10.202;2022-08-25T01:13:40;96280.78;;;13.72;84.62
73941;BME280;62294;48.554;10.202;2022-08-25T01:16:07;96285.69;;;13.75;84.53
73941;BME280;62294;48.554;10.202;2022-08-25T01:21:12;96281.28;;;13.69;84.35
73941;BME280;62294;48.554;10.202;2022-08-25T01:23:39;96272.19;;;13.70;84.26
73941;BME280;62294;48.554;10.202;2022-08-25T01:26:12;96281.97;;;13.64;84.74
73941;BME280;62294;48.554;10.202;2022-08-25T01:28:40;96275.44;;;13.60;84.97
73941;BME280;62294;48.554;10.202;2022-08-25T01:31:28;96275.09;;;13.57;85.07
73941;BME280;62294;48.554;10.202;2022-08-25T01:33:56;96269.19;;;13.55;85.16
73941;BME280;62294;48.554;10.202;2022-08-25T01:36:25;96266.41;;;13.61;84.89
73941;BME280;62294;48.554;10.202;2022-08-25T01:38:53;96263.97;;;13.60;84.69
73941;BME280;62294;48.554;10.202;2022-08-25T01:44:17;96263.84;;;13.43;85.15
73941;BME280;62294;48.554;10.202;2022-08-25T01:46:44;96267.22;;;13.38;85.30
73941;BME280;62294;48.554;10.202;2022-08-25T01:49:10;96267.44;;;13.37;85.25
73941;BME280;62294;48.554;10.202;2022-08-25T01:51:42;96259.78;;;13.40;85.17
73941;BME280;62294;48.554;10.202;2022-08-25T01:54:09;96261.50;;;13.46;84.87
73941;BME280;62294;48.554;10.202;2022-08-25T01:56:35;96258.84;;;13.46;84.65
73941;BME280;62294;48.554;10.202;2022-08-25T01:59:03;96256.75;;;13.48;84.82
73941;BME280;62294;48.554;10.202;2022-08-25T02:01:30;96262.91;;;13.49;84.72
73941;BME280;62294;48.554;10.202;2022-08-25T02:03:57;96255.38;;;13.46;84.64
73941;BME280;62294;48.554;10.202;2022-08-25T02:06:30;96263.84;;;13.43;84.97
73941;BME280;62294;48.554;10.202;2022-08-25T02:09:05;96250.81;;;13.35;84.78
73941;BME280;62294;48.554;10.202;2022-08-25T02:11:34;96259.78;;;13.40;84.81
73941;BME280;62294;48.554;10.202;2022-08-25T02:14:01;96251.53;;;13.42;85.08
73941;BME280;62294;48.554;10.202;2022-08-25T02:16:30;96251.53;;;13.42;84.58
73941;BME280;62294;48.554;10.202;2022-08-25T02:18:58;96250.72;;;13.41;84.59
73941;BME280;62294;48.554;10.202;2022-08-25T02:21:24;96244.22;;;13.37;84.69
73941;BME280;62294;48.554;10.202;2022-08-25T02:23:51;96239.94;;;13.36;84.53
73941;BME280;62294;48.554;10.202;2022-08-25T02:26:19;96237.47;;;13.35;84.46
73941;BME280;62294;48.554;10.202;2022-08-25T02:28:46;96232.25;;;13.28;84.75
73941;BME280;62294;48.554;10.202;2022-08-25T02:31:14;96238.41;;;13.29;84.58
73941;BME280;62294;48.554;10.202;2022-08-25T02:33:42;96235.16;;;13.27;84.50
73941;BME280;62294;48.554;10.202;2022-08-25T02:36:09;96230.84;;;13.26;84.74
73941;BME280;62294;48.554;10.202;2022-08-25T02:38:36;96231.78;;;13.20;85.30
73941;BME280;62294;48.554;10.202;2022-08-25T02:41:09;96237.25;;;13.25;85.27
73941;BME280;62294;48.554;10.202;2022-08-25T02:43:37;96239.31;;;13.11;85.70
73941;BME280;62294;48.554;10.202;2022-08-25T02:46:04;96238.06;;;13.14;85.61
73941;BME280;62294;48.554;10.202;2022-08-25T02:48:32;96239.31;;;13.11;85.79
73941;BME280;62294;48.554;10.202;2022-08-25T02:51:00;96245.47;;;13.12;84.98
73941;BME280;62294;48.554;10.202;2022-08-25T02:53:28;96242.69;;;13.18;85.14
73941;BME280;62294;48.554;10.202;2022-08-25T02:55:55;96243.25;;;13.09;85.16
73941;BME280;62294;48.554;10.202;2022-08-25T02:58:21;96247.28;;;13.00;85.66
73941;BME280;62294;48.554;10.202;2022-08-25T03:00:49;96241.03;;;13.06;85.57
73941;BME280;62294;48.554;10.202;2022-08-25T03:03:16;96238.38;;;13.06;85.82
73941;BME280;62294;48.554;10.202;2022-08-25T03:05:42;96229.56;;;13.05;85.57
73941;BME280;62294;48.554;10.202;2022-08-25T03:08:10;96225.09;;;12.99;85.85
73941;BME280;62294;48.554;10.202;2022-08-25T03:10:37;96230.94;;;13.08;85.54
73941;BME280;62294;48.554;10.202;2022-08-25T03:13:04;96226.19;;;13.10;85.63
73941;BME280;62294;48.554;10.202;2022-08-25T03:15:31;96225.03;;;13.06;85.89
73941;BME280;62294;48.554;10.202;2022-08-25T03:17:58;96234.88;;;13.05;86.13
73941;BME280;62294;48.554;10.202;2022-08-25T03:20:25;96225.75;;;13.13;85.97
73941;BME280;62294;48.554;10.202;2022-08-25T03:22:53;96227.00;;;13.10;85.91
73941;BME280;62294;48.554;10.202;2022-08-25T03:25:19;96222.50;;;13.11;85.84
73941;BME280;62294;48.554;10.202;2022-08-25T03:28:06;96222.50;;;13.11;85.44
73941;BME280;62294;48.554;10.202;2022-08-25T03:30:33;96227.38;;;13.14;85.63
73941;BME280;62294;48.554;10.202;2022-08-25T03:32:59;96220.66;;;13.11;85.65
73941;BME280;62294;48.554;10.202;2022-08-25T03:35:26;96221.66;;;13.10;85.45
73941;BME280;62294;48.554;10.202;2022-08-25T03:37:57;96228.03;;;12.98;85.68
73941;BME280;62294;48.554;10.202;2022-08-25T03:40:24;96223.13;;;12.95;85.66
73941;BME280;62294;48.554;10.202;2022-08-25T03:42:50;96228.00;;;12.86;85.88
73941;BME280;62294;48.554;10.202;2022-08-25T03:45:18;96224.72;;;12.72;86.05
73941;BME280;62294;48.554;10.202;2022-08-25T03:47:46;96226.31;;;12.73;86.58
73941;BME280;62294;48.554;10.202;2022-08-25T03:50:14;96234.19;;;12.57;87.46
73941;BME280;62294;48.554;10.202;2022-08-25T03:52:42;96232.03;;;12.47;88.34
73941;BME280;62294;48.554;10.202;2022-08-25T03:55:10;96224.88;;;12.48;88.40
73941;BME280;62294;48.554;10.202;2022-08-25T03:57:37;96229.03;;;12.55;88.07
73941;BME280;62294;48.554;10.202;2022-08-25T04:00:07;96223.16;;;12.65;87.80
73941;BME280;62294;48.554;10.202;2022-08-25T04:02:34;96235.81;;;12.69;87.56
73941;BME280;62294;48.554;10.202;2022-08-25T04:05:00;96240.00;;;12.65;87.91
73941;BME280;62294;48.554;10.202;2022-08-25T04:07:28;96242.78;;;12.70;87.00
73941;BME280;62294;48.554;10.202;2022-08-25T04:09:54;96233.50;;;12.61;87.28
73941;BME280;62294;48.554;10.202;2022-08-25T04:12:21;96242.28;;;12.62;87.45
73941;BME280;62294;48.554;10.202;2022-08-25T04:14:49;96242.53;;;12.60;87.36
73941;BME280;62294;48.554;10.202;2022-08-25T04:17:15;96238.44;;;12.58;87.69
73941;BME280;62294;48.554;10.202;2022-08-25T04:19:42;96241.34;;;12.56;87.65
73941;BME280;62294;48.554;10.202;2022-08-25T04:22:09;96241.34;;;12.56;88.02
73941;BME280;62294;48.554;10.202;2022-08-25T04:24:38;96241.84;;;12.65;88.01
73941;BME280;62294;48.554;10.202;2022-08-25T04:27:05;96239.63;;;12.62;88.29
73941;BME280;62294;48.554;10.202;2022-08-25T04:29:32;96244.88;;;12.68;87.97
73941;BME280;62294;48.554;10.202;2022-08-25T04:31:58;96241.28;;;12.74;87.41
73941;BME280;62294;48.554;10.202;2022-08-25T04:34:25;96250.84;;;12.82;86.73
73941;BME280;62294;48.554;10.202;2022-08-25T04:36:57;96244.66;;;12.70;87.48
73941;BME280;62294;48.554;10.202;2022-08-25T04:39:23;96246.50;;;12.69;87.51
73941;BME280;62294;48.554;10.202;2022-08-25T04:41:50;96238.63;;;12.74;87.77
73941;BME280;62294;48.554;10.202;2022-08-25T04:44:17;96235.03;;;12.80;87.16
73941;BME280;62294;48.554;10.202;2022-08-25T04:46:43;96238.19;;;12.77;87.42
73941;BME280;62294;48.554;10.202;2022-08-25T04:49:10;96240.66;;;12.91;86.86
73941;BME280;62294;48.554;10.202;2022-08-25T04:51:39;96242.06;;;13.05;86.46
73941;BME280;62294;48.554;10.202;2022-08-25T04:54:10;96241.94;;;13.00;86.37
73941;BME280;62294;48.554;10.202;2022-08-25T04:56:39;96234.38;;;12.97;85.96
73941;BME280;62294;48.554;10.202;2022-08-25T04:59:11;96238.56;;;12.93;86.57
73941;BME280;62294;48.554;10.202;2022-08-25T05:01:39;96229.03;;;12.97;86.42
73941;BME280;62294;48.554;10.202;2022-08-25T05:04:09;96237.63;;;12.99;86.91
73941;BME280;62294;48.554;10.202;2022-08-25T05:06:54;96234.13;;;13.16;86.62
73941;BME280;62294;48.554;10.202;2022-08-25T05:09:21;96243.06;;;13.33;86.02
73941;BME280;62294;48.554;10.202;2022-08-25T05:11:48;96239.81;;;13.43;86.17
73941;BME280;62294;48.554;10.202;2022-08-25T05:14:14;96230.88;;;13.49;85.51
73941;BME280;62294;48.554;10.202;2022-08-25T05:16:45;96232.63;;;13.55;85.70
73941;BME280;62294;48.554;10.202;2022-08-25T05:19:11;96233.78;;;13.59;85.76
73941;BME280;62294;48.554;10.202;2022-08-25T05:21:38;96240.50;;;13.50;86.21
73941;BME280;62294;48.554;10.202;2022-08-25T05:24:06;96238.41;;;13.52;86.25
73941;BME280;62294;48.554;10.202;2022-08-25T05:26:33;96236.91;;;13.68;85.86
73941;BME280;62294;48.554;10.202;2022-08-25T05:29:02;96231.44;;;13.74;85.73
73941;BME280;62294;48.554;10.202;2022-08-25T05:31:31;96234.22;;;13.79;85.61
73941;BME280;62294;48.554;10.202;2022-08-25T05:33:58;96236.19;;;13.84;85.86
73941;BME280;62294;48.554;10.202;2022-08-25T05:36:26;96229.53;;;13.98;85.29
73941;BME280;62294;48.554;10.202;2022-08-25T05:38:53;96232.81;;;13.88;85.64
73941;BME280;62294;48.554;10.202;2022-08-25T05:41:25;96234.06;;;13.97;85.76
73941;BME280;62294;48.554;10.202;2022-08-25T05:43:52;96231.84;;;14.06;85.36
73941;BME280;62294;48.554;10.202;2022-08-25T05:46:19;96227.19;;;14.13;86.01
73941;BME280;62294;48.554;10.202;2022-08-25T05:48:46;96227.13;;;14.36;85.88
73941;BME280;62294;48.554;10.202;2022-08-25T05:51:14;96219.34;;;14.63;85.31
73941;BME280;62294;48.554;10.202;2022-08-25T05:53:43;96216.25;;;14.82;85.25
73941;BME280;62294;48.554;10.202;2022-08-25T05:56:10;96217.22;;;14.93;84.96
73941;BME280;62294;48.554;10.202;2022-08-25T05:58:40;96205.88;;;15.19;84.89
73941;BME280;62294;48.554;10.202;2022-08-25T06:01:08;96212.88;;;15.53;84.71
73941;BME280;62294;48.554;10.202;2022-08-25T06:03:52;96204.34;;;15.95;84.61
73941;BME280;62294;48.554;10.202;2022-08-25T06:06:21;96215.47;;;17.05;82.77
73941;BME280;62294;48.554;10.202;2022-08-25T06:08:49;96212.41;;;18.54;81.73
73941;BME280;62294;48.554;10.202;2022-08-25T06:11:16;96205.47;;;19.94;74.90
73941;BME280;62294;48.554;10.202;2022-08-25T06:13:42;96211.81;;;20.92;73.78
73941;BME280;62294;48.554;10.202;2022-08-25T06:16:09;96216.88;;;21.71;70.04
73941;BME280;62294;48.554;10.202;2022-08-25T06:18:35;96206.34;;;22.45;67.06
73941;BME280;62294;48.554;10.202;2022-08-25T06:21:10;96210.91;;;23.29;61.16
73941;BME280;62294;48.554;10.202;2022-08-25T06:23:39;96208.38;;;23.84;63.13
73941;BME280;62294;48.554;10.202;2022-08-25T06:26:08;96204.09;;;24.51;62.35
73941;BME280;62294;48.554;10.202;2022-08-25T06:28:43;96208.00;;;25.21;56.05
73941;BME280;62294;48.554;10.202;2022-08-25T06:31:09;96201.44;;;25.80;54.89
73941;BME280;62294;48.554;10.202;2022-08-25T06:33:36;96192.31;;;26.46;51.04
73941;BME280;62294;48.554;10.202;2022-08-25T06:36:03;96191.66;;;27.06;50.96
73941;BME280;62294;48.554;10.202;2022-08-25T06:38:29;96192.03;;;26.73;49.29
73941;BME280;62294;48.554;10.202;2022-08-25T06:41:03;96188.56;;;26.82;48.06
73941;BME280;62294;48.554;10.202;2022-08-25T06:43:31;96198.06;;;27.01;46.22
73941;BME280;62294;48.554;10.202;2022-08-25T06:48:34;96191.16;;;26.39;48.19
73941;BME280;62294;48.554;10.202;2022-08-25T06:51:05;96180.66;;;27.91;45.24
73941;BME280;62294;48.554;10.202;2022-08-25T06:53:32;96175.78;;;28.14;44.67
73941;BME280;62294;48.554;10.202;2022-08-25T06:55:59;96183.00;;;28.19;44.15
73941;BME280;62294;48.554;10.202;2022-08-25T06:58:32;96183.94;;;26.43;46.78
73941;BME280;62294;48.554;10.202;2022-08-25T07:03:41;96185.84;;;26.99;45.88
73941;BME280;62294;48.554;10.202;2022-08-25T07:06:08;96178.97;;;27.18;46.07
73941;BME280;62294;48.554;10.202;2022-08-25T07:08:35;96177.88;;;28.84;42.59
73941;BME280;62294;48.554;10.202;2022-08-25T07:11:07;96187.66;;;27.37;44.72
73941;BME280;62294;48.554;10.202;2022-08-25T07:13:42;96179.72;;;27.70;44.53
73941;BME280;62294;48.554;10.202;2022-08-25T07:16:09;96177.59;;;27.84;44.47
73941;BME280;62294;48.554;10.202;2022-08-25T07:18:37;96183.25;;;27.79;43.99
73941;BME280;62294;48.554;10.202;2022-08-25T07:21:04;96174.06;;;26.55;46.58
73941;BME280;62294;48.554;10.202;2022-08-25T07:23:34;96184.25;;;27.06;45.59
73941;BME280;62294;48.554;10.202;2022-08-25T07:26:14;96185.06;;;28.68;43.31
73941;BME280;62294;48.554;10.202;2022-08-25T07:29:04;96179.59;;;26.90;46.44
73941;BME280;62294;48.554;10.202;2022-08-25T07:31:32;96179.50;;;28.09;43.93
73941;BME280;62294;48.554;10.202;2022-08-25T07:33:59;96184.34;;;27.87;43.87
73941;BME280;62294;48.554;10.202;2022-08-25T07:36:44;96178.00;;;27.57;44.75
73941;BME280;62294;48.554;10.202;2022-08-25T07:39:10;96172.56;;;27.40;45.61
73941;BME280;62294;48.554;10.202;2022-08-25T07:41:39;96172.88;;;27.13;46.00
73941;BME280;62294;48.554;10.202;2022-08-25T07:44:07;96177.66;;;27.24;46.34
73941;BME280;62294;48.554;10.202;2022-08-25T07:46:34;96171.09;;;27.51;45.96
73941;BME280;62294;48.554;10.202;2022-08-25T07:49:01;96179.63;;;27.41;45.32
73941;BME280;62294;48.554;10.202;2022-08-25T07:51:28;96183.41;;;27.83;44.73
73941;BME280;62294;48.554;10.202;2022-08-25T07:53:54;96173.97;;;28.56;43.45
73941;BME280;62294;48.554;10.202;2022-08-25T07:56:22;96177.63;;;29.39;41.58
73941;BME280;62294;48.554;10.202;2022-08-25T07:58:49;96180.28;;;29.06;41.52
73941;BME280;62294;48.554;10.202;2022-08-25T08:01:18;96173.19;;;27.63;45.59
73941;BME280;62294;48.554;10.202;2022-08-25T08:03:45;96180.59;;;28.84;43.16
73941;BME280;62294;48.554;10.202;2022-08-25T08:06:20;96181.81;;;29.90;41.63
73941;BME280;62294;48.554;10.202;2022-08-25T08:08:50;96181.19;;;28.31;42.93
73941;BME280;62294;48.554;10.202;2022-08-25T08:11:30;96181.34;;;29.55;40.91
73941;BME280;62294;48.554;10.202;2022-08-25T08:14:00;96181.09;;;28.77;42.34
73941;BME280;62294;48.554;10.202;2022-08-25T08:16:28;96182.09;;;28.44;43.13
73941;BME280;62294;48.554;10.202;2022-08-25T08:18:56;96177.84;;;29.05;42.71
73941;BME280;62294;48.554;10.202;2022-08-25T08:21:26;96182.94;;;28.36;43.12
73941;BME280;62294;48.554;10.202;2022-08-25T08:23:54;96175.97;;;29.26;41.52
73941;BME280;62294;48.554;10.202;2022-08-25T08:26:25;96174.06;;;28.39;43.10
73941;BME280;62294;48.554;10.202;2022-08-25T08:29:11;96176.03;;;28.30;43.58
73941;BME280;62294;48.554;10.202;2022-08-25T08:31:39;96181.59;;;29.00;41.12
73941;BME280;62294;48.554;10.202;2022-08-25T08:34:14;96178.47;;;28.90;41.43
73941;BME280;62294;48.554;10.202;2022-08-25T08:36:41;96170.38;;;29.22;40.70
73941;BME280;62294;48.554;10.202;2022-08-25T08:39:10;96178.28;;;28.36;42.25
73941;BME280;62294;48.554;10.202;2022-08-25T08:47:27;96170.94;;;28.20;43.51
73941;BME280;62294;48.554;10.202;2022-08-25T08:53:18;96178.13;;;29.53;39.91
73941;BME280;62294;48.554;10.202;2022-08-25T08:55:50;96176.41;;;29.07;41.23
73941;BME280;62294;48.554;10.202;2022-08-25T08:58:27;96170.63;;;28.59;41.96
73941;BME280;62294;48.554;10.202;2022-08-25T09:00:58;96160.47;;;28.22;43.25
73941;BME280;62294;48.554;10.202;2022-08-25T09:03:40;96160.72;;;28.75;42.27
73941;BME280;62294;48.554;10.202;2022-08-25T09:06:17;96158.44;;;29.92;40.00
73941;BME280;62294;48.554;10.202;2022-08-25T09:08:46;96157.47;;;29.02;42.00
73941;BME280;62294;48.554;10.202;2022-08-25T09:14:19;96162.41;;;30.64;38.59
73941;BME280;62294;48.554;10.202;2022-08-25T09:25:14;96149.03;;;30.38;38.21
73941;BME280;62294;48.554;10.202;2022-08-25T09:28:23;96137.81;;;30.67;38.47
73941;BME280;62294;48.554;10.202;2022-08-25T09:31:13;96140.53;;;31.31;36.86
73941;BME280;62294;48.554;10.202;2022-08-25T09:33:42;96139.69;;;31.15;37.29
73941;BME280;62294;48.554;10.202;2022-08-25T09:36:09;96134.56;;;31.02;37.98
73941;BME280;62294;48.554;10.202;2022-08-25T09:38:36;96126.69;;;31.00;37.79
73941;BME280;62294;48.554;10.202;2022-08-25T09:41:04;96120.03;;;31.69;36.56
73941;BME280;62294;48.554;10.202;2022-08-25T09:43:33;96121.09;;;30.00;39.00
73941;BME280;62294;48.554;10.202;2022-08-25T09:48:57;96122.38;;;29.70;40.57
73941;BME280;62294;48.554;10.202;2022-08-25T09:51:31;96111.72;;;30.01;39.83
73941;BME280;62294;48.554;10.202;2022-08-25T09:56:57;96118.47;;;30.03;38.78
73941;BME280;62294;48.554;10.202;2022-08-25T09:59:30;96111.78;;;30.49;38.40
73941;BME280;62294;48.554;10.202;2022-08-25T10:04:47;96104.31;;;31.26;35.96
73941;BME280;62294;48.554;10.202;2022-08-25T10:07:33;96094.41;;;30.45;37.72
73941;BME280;62294;48.554;10.202;2022-08-25T10:10:05;96091.66;;;30.33;38.92
73941;BME280;62294;48.554;10.202;2022-08-25T10:12:43;96096.03;;;28.91;41.62
73941;BME280;62294;48.554;10.202;2022-08-25T10:15:31;96087.09;;;30.25;40.01
73941;BME280;62294;48.554;10.202;2022-08-25T10:21:03;96090.59;;;30.01;39.22
73941;BME280;62294;48.554;10.202;2022-08-25T10:23:36;96085.69;;;27.42;45.22
73941;BME280;62294;48.554;10.202;2022-08-25T10:26:10;96096.88;;;29.45;40.85
73941;BME280;62294;48.554;10.202;2022-08-25T10:29:01;96087.31;;;31.79;35.55
73941;BME280;62294;48.554;10.202;2022-08-25T10:31:52;96082.38;;;31.69;36.16
73941;BME280;62294;48.554;10.202;2022-08-25T10:34:32;96087.75;;;31.66;34.67
73941;BME280;62294;48.554;10.202;2022-08-25T10:37:25;96082.88;;;31.90;34.37
73941;BME280;62294;48.554;10.202;2022-08-25T10:45:27;96068.00;;;31.05;34.84
73941;BME280;62294;48.554;10.202;2022-08-25T10:54:16;96067.31;;;30.32;36.42
73941;BME280;62294;48.554;10.202;2022-08-25T10:57:01;96059.84;;;30.68;35.83
73941;BME280;62294;48.554;10.202;2022-08-25T11:02:46;96061.72;;;30.04;38.16
73941;BME280;62294;48.554;10.202;2022-08-25T11:05:54;96057.72;;;31.02;35.74
73941;BME280;62294;48.554;10.202;2022-08-25T11:08:33;96057.53;;;31.81;34.67
73941;BME280;62294;48.554;10.202;2022-08-25T11:11:03;96056.41;;;32.64;32.90
73941;BME280;62294;48.554;10.202;2022-08-25T11:13:43;96046.31;;;30.88;36.29
73941;BME280;62294;48.554;10.202;2022-08-25T11:16:17;96049.38;;;32.32;34.14
73941;BME280;62294;48.554;10.202;2022-08-25T11:19:36;96049.22;;;31.62;35.02
73941;BME280;62294;48.554;10.202;2022-08-25T11:22:05;96042.56;;;32.10;34.46
73941;BME280;62294;48.554;10.202;2022-08-25T11:27:14;96047.84;;;32.50;33.40
73941;BME280;62294;48.554;10.202;2022-08-25T11:29:48;96044.31;;;33.22;32.44
73941;BME280;62294;48.554;10.202;2022-08-25T11:32:19;96045.50;;;32.01;34.31
73941;BME280;62294;48.554;10.202;2022-08-25T11:34:48;96064.56;;;31.94;33.86
73941;BME280;62294;48.554;10.202;2022-08-25T11:37:24;96045.69;;;30.66;36.78
73941;BME280;62294;48.554;10.202;2022-08-25T11:42:57;96056.47;;;29.99;37.68
73941;BME280;62294;48.554;10.202;2022-08-25T11:46:00;96058.72;;;29.85;37.95
73941;BME280;62294;48.554;10.202;2022-08-25T11:51:32;96055.91;;;30.94;35.85
73941;BME280;62294;48.554;10.202;2022-08-25T11:54:15;96040.25;;;30.06;37.79
73941;BME280;62294;48.554;10.202;2022-08-25T11:56:52;96046.53;;;31.81;34.42
73941;BME280;62294;48.554;10.202;2022-08-25T12:04:57;96033.41;;;33.71;31.66
73941;BME280;62294;48.554;10.202;2022-08-25T12:07:27;96034.94;;;33.69;31.48
73941;BME280;62294;48.554;10.202;2022-08-25T12:12:30;96024.34;;;34.42;30.32
73941;BME280;62294;48.554;10.202;2022-08-25T12:15:13;96026.97;;;34.87;29.46
73941;BME280;62294;48.554;10.202;2022-08-25T12:23:32;96015.56;;;31.37;35.23
73941;BME280;62294;48.554;10.202;2022-08-25T12:32:12;96005.19;;;30.36;36.82
73941;BME280;62294;48.554;10.202;2022-08-25T12:38:08;96010.97;;;31.41;36.28
73941;BME280;62294;48.554;10.202;2022-08-25T12:43:23;96015.25;;;33.47;31.57
73941;BME280;62294;48.554;10.202;2022-08-25T12:45:53;96013.19;;;34.35;29.44
73941;BME280;62294;48.554;10.202;2022-08-25T12:49:04;96005.81;;;32.87;31.53
73941;BME280;62294;48.554;10.202;2022-08-25T12:51:56;96006.44;;;31.49;34.75
73941;BME280;62294;48.554;10.202;2022-08-25T12:54:44;95998.59;;;31.94;34.10
73941;BME280;62294;48.554;10.202;2022-08-25T12:57:36;96004.75;;;30.09;36.71
73941;BME280;62294;48.554;10.202;2022-08-25T13:00:26;96003.25;;;30.36;36.95
73941;BME280;62294;48.554;10.202;2022-08-25T13:12:20;95987.59;;;28.74;39.72
73941;BME280;62294;48.554;10.202;2022-08-25T13:14:53;95992.59;;;30.74;36.20
73941;BME280;62294;48.554;10.202;2022-08-25T13:17:29;95997.31;;;32.23;34.04
73941;BME280;62294;48.554;10.202;2022-08-25T13:22:38;95982.28;;;33.74;30.27
73941;BME280;62294;48.554;10.202;2022-08-25T13:25:05;95979.63;;;34.03;29.65
73941;BME280;62294;48.554;10.202;2022-08-25T13:27:33;95982.97;;;33.67;29.75
73941;BME280;62294;48.554;10.202;2022-08-25T13:30:03;95982.41;;;33.39;29.90
73941;BME280;62294;48.554;10.202;2022-08-25T13:32:35;95971.44;;;34.63;28.34
73941;BME280;62294;48.554;10.202;2022-08-25T13:37:45;95972.94;;;32.21;32.12
73941;BME280;62294;48.554;10.202;2022-08-25T13:40:22;95970.31;;;32.82;30.57
73941;BME280;62294;48.554;10.202;2022-08-25T13:42:54;95963.81;;;31.86;31.88
73941;BME280;62294;48.554;10.202;2022-08-25T13:45:26;95971.22;;;30.40;34.94
73941;BME280;62294;48.554;10.202;2022-08-25T13:47:55;95955.19;;;30.02;35.09
73941;BME280;62294;48.554;10.202;2022-08-25T13:52:55;95955.75;;;29.47;36.60
73941;BME280;62294;48.554;10.202;2022-08-25T13:55:35;95951.72;;;29.33;37.15
73941;BME280;62294;48.554;10.202;2022-08-25T13:58:20;95955.78;;;28.70;37.84
73941;BME280;62294;48.554;10.202;2022-08-25T14:01:07;95949.94;;;29.04;37.89
73941;BME280;62294;48.554;10.202;2022-08-25T14:04:18;95950.31;;;28.70;37.01
73941;BME280;62294;48.554;10.202;2022-08-25T14:06:42;95942.75;;;28.67;38.29
73941;BME280;62294;48.554;10.202;2022-08-25T14:09:15;95942.66;;;28.43;39.08
73941;BME280;62294;48.554;10.202;2022-08-25T14:11:46;95946.16;;;28.23;39.01
73941;BME280;62294;48.554;10.202;2022-08-25T14:16:52;95953.66;;;29.20;37.61
73941;BME280;62294;48.554;10.202;2022-08-25T14:19:23;95940.56;;;28.93;37.68
73941;BME280;62294;48.554;10.202;2022-08-25T14:21:51;95947.97;;;28.39;38.50
73941;BME280;62294;48.554;10.202;2022-08-25T14:24:22;95948.66;;;28.16;38.67
73941;BME280;62294;48.554;10.202;2022-08-25T14:26:49;95939.03;;;28.51;39.21
73941;BME280;62294;48.554;10.202;2022-08-25T14:29:19;95939.72;;;29.13;38.01
73941;BME280;62294;48.554;10.202;2022-08-25T14:31:46;95938.91;;;28.68;38.47
73941;BME280;62294;48.554;10.202;2022-08-25T14:34:24;95927.91;;;29.33;37.06
73941;BME280;62294;48.554;10.202;2022-08-25T14:36:54;95930.19;;;29.56;36.84
73941;BME280;62294;48.554;10.202;2022-08-25T14:39:21;95934.84;;;29.31;37.56
73941;BME280;62294;48.554;10.202;2022-08-25T14:41:47;95935.47;;;28.59;38.34
73941;BME280;62294;48.554;10.202;2022-08-25T14:44:19;95929.03;;;29.44;37.21
73941;BME280;62294;48.554;10.202;2022-08-25T14:46:51;95929.19;;;29.48;37.55
73941;BME280;62294;48.554;10.202;2022-08-25T14:49:25;95939.78;;;29.86;36.55
73941;BME280;62294;48.554;10.202;2022-08-25T14:51:56;95932.22;;;29.46;37.79
73941;BME280;62294;48.554;10.202;2022-08-25T14:54:27;95927.91;;;29.70;37.34
73941;BME280;62294;48.554;10.202;2022-08-25T14:56:54;95927.66;;;29.75;36.97
73941;BME280;62294;48.554;10.202;2022-08-25T14:59:22;95925.25;;;29.73;37.20
73941;BME280;62294;48.554;10.202;2022-08-25T15:01:49;95929.00;;;28.55;38.79
73941;BME280;62294;48.554;10.202;2022-08-25T15:04:18;95921.22;;;29.10;37.80
73941;BME280;62294;48.554;10.202;2022-08-25T15:06:46;95923.22;;;29.70;36.33